createdAt,value
2022-10-22T00:00:42.847Z,68.62
2022-10-22T00:03:31.963Z,68.66
2022-10-22T00:06:01.592Z,68.45
2022-10-22T00:08:32.283Z,68.65
2022-10-22T00:11:08.700Z,68.56
2022-10-22T00:13:37.955Z,68.58
2022-10-22T00:16:07.482Z,68.67
2022-10-22T00:18:36.907Z,68.71
2022-10-22T00:21:07.899Z,68.63
2022-10-22T00:23:41.264Z,68.64
2022-10-22T00:26:11.179Z,68.68
2022-10-22T00:28:40.398Z,68.55
2022-10-22T00:31:09.902Z,68.65
2022-10-22T00:33:39.183Z,68.86
2022-10-22T00:36:09.576Z,68.68
2022-10-22T00:38:40.339Z,68.87
2022-10-22T00:41:10.378Z,68.61
2022-10-22T00:43:54.138Z,68.60
2022-10-22T00:46:23.834Z,68.71
2022-10-22T00:48:54.052Z,68.82
2022-10-22T00:51:26.841Z,68.90
2022-10-22T00:54:03.006Z,68.67
2022-10-22T00:56:33.104Z,68.87
2022-10-22T00:59:03.702Z,68.80
2022-10-22T01:01:33.753Z,68.90
2022-10-22T01:04:02.650Z,68.84
2022-10-22T01:06:34.314Z,68.78
2022-10-22T01:09:15.391Z,68.67
2022-10-22T01:11:56.262Z,68.94
2022-10-22T01:14:32.664Z,68.97
2022-10-22T01:17:09.212Z,68.96
2022-10-22T01:19:50.765Z,68.95
2022-10-22T01:22:30.749Z,68.92
2022-10-22T01:25:10.160Z,69.02
2022-10-22T01:27:56.053Z,68.97
2022-10-22T01:30:27.339Z,68.86
2022-10-22T01:33:01.078Z,68.97
2022-10-22T01:38:08.837Z,68.82
2022-10-22T01:40:38.982Z,69.03
2022-10-22T01:43:09.950Z,68.96
2022-10-22T01:45:44.076Z,69.06
2022-10-22T01:48:31.227Z,69.03
2022-10-22T01:51:24.382Z,69.01
2022-10-22T01:53:59.274Z,68.93
2022-10-22T01:56:42.166Z,69.06
2022-10-22T01:59:24.270Z,69.05
2022-10-22T02:02:01.844Z,69.11
2022-10-22T02:04:36.979Z,69.10
2022-10-22T02:07:10.167Z,69.14
2022-10-22T02:09:41.556Z,69.00
2022-10-22T02:12:11.978Z,69.08
2022-10-22T02:14:45.199Z,69.11
2022-10-22T02:17:19.975Z,69.11
2022-10-22T02:19:54.716Z,69.04
2022-10-22T02:22:24.730Z,69.26
2022-10-22T02:24:54.113Z,69.13
2022-10-22T02:27:29.307Z,69.03
2022-10-22T02:33:53.510Z,68.97
2022-10-22T02:36:24.640Z,69.10
2022-10-22T02:38:55.607Z,69.05
2022-10-22T02:41:25.491Z,69.17
2022-10-22T02:43:55.780Z,68.95
2022-10-22T02:46:25.618Z,69.11
2022-10-22T02:48:56.400Z,69.06
2022-10-22T02:51:25.845Z,69.12
2022-10-22T02:53:54.969Z,69.05
2022-10-22T02:56:24.547Z,69.03
2022-10-22T02:58:53.989Z,69.04
2022-10-22T03:01:23.510Z,69.10
2022-10-22T03:03:52.931Z,68.97
2022-10-22T03:08:54.792Z,69.09
2022-10-22T03:11:24.158Z,68.99
2022-10-22T03:13:53.444Z,69.08
2022-10-22T03:16:22.766Z,68.87
2022-10-22T03:18:52.026Z,69.05
2022-10-22T03:21:31.197Z,68.98
2022-10-22T03:24:03.937Z,69.05
2022-10-22T03:26:34.079Z,68.80
2022-10-22T03:29:03.737Z,69.05
2022-10-22T03:31:33.079Z,69.09
2022-10-22T03:34:02.290Z,68.96
2022-10-22T03:36:34.043Z,68.90
2022-10-22T03:39:04.020Z,69.07
2022-10-22T03:41:33.947Z,69.00
2022-10-22T03:44:04.676Z,68.99
2022-10-22T03:46:34.332Z,68.98
2022-10-22T03:49:03.535Z,68.97
2022-10-22T03:51:35.925Z,69.13
2022-10-22T03:54:05.572Z,69.14
2022-10-22T03:56:34.942Z,68.92
2022-10-22T03:59:04.353Z,68.95
2022-10-22T04:01:34.441Z,69.10
2022-10-22T04:04:03.362Z,69.01
2022-10-22T04:06:34.108Z,68.99
2022-10-22T04:09:03.422Z,68.97
2022-10-22T04:11:32.823Z,69.05
2022-10-22T04:14:01.973Z,68.99
2022-10-22T04:16:32.867Z,69.05
2022-10-22T04:19:02.792Z,69.14
2022-10-22T04:21:33.654Z,69.04
2022-10-22T04:24:02.956Z,69.13
2022-10-22T04:26:32.472Z,69.02
2022-10-22T04:29:01.695Z,69.08
2022-10-22T04:31:31.101Z,69.06
2022-10-22T04:34:01.917Z,69.16
2022-10-22T04:36:31.610Z,69.02
2022-10-22T04:39:03.464Z,69.11
2022-10-22T04:41:34.921Z,69.01
2022-10-22T04:44:04.604Z,69.11
2022-10-22T04:46:36.400Z,69.13
2022-10-22T04:49:06.009Z,69.12
2022-10-22T04:51:35.420Z,69.13
2022-10-22T04:54:06.367Z,69.07
2022-10-22T04:56:35.847Z,69.12
2022-10-22T04:59:07.258Z,69.22
2022-10-22T05:01:41.741Z,69.18
2022-10-22T05:04:14.929Z,69.10
2022-10-22T05:06:44.878Z,68.85
2022-10-22T05:09:16.689Z,68.99
2022-10-22T05:11:48.960Z,69.13
2022-10-22T05:14:20.627Z,69.14
2022-10-22T05:16:50.339Z,69.15
2022-10-22T05:19:24.146Z,69.01
2022-10-22T05:21:55.087Z,69.12
2022-10-22T05:24:26.233Z,69.08
2022-10-22T05:26:57.510Z,69.16
2022-10-22T05:29:27.514Z,69.13
2022-10-22T05:31:56.969Z,69.00
2022-10-22T05:34:26.228Z,68.96
2022-10-22T05:36:55.708Z,69.09
2022-10-22T05:39:28.544Z,69.04
2022-10-22T05:41:58.667Z,69.09
2022-10-22T05:44:27.949Z,68.98
2022-10-22T05:46:57.277Z,69.21
2022-10-22T05:49:26.488Z,69.06
2022-10-22T05:51:55.783Z,69.08
2022-10-22T05:54:26.433Z,69.05
2022-10-22T05:56:55.873Z,69.05
2022-10-22T05:59:25.079Z,69.06
2022-10-22T06:01:54.992Z,69.12
2022-10-22T06:04:24.124Z,69.08
2022-10-22T06:06:54.742Z,69.16
2022-10-22T06:09:28.639Z,69.23
2022-10-22T06:11:59.438Z,69.41
2022-10-22T06:14:29.489Z,69.25
2022-10-22T06:17:01.612Z,69.25
2022-10-22T06:19:31.459Z,69.57
2022-10-22T06:22:00.800Z,69.49
2022-10-22T06:24:31.551Z,69.62
2022-10-22T06:27:00.918Z,69.73
2022-10-22T06:29:30.047Z,69.55
2022-10-22T06:31:59.357Z,69.61
2022-10-22T06:34:28.592Z,69.52
2022-10-22T06:36:57.930Z,69.66
2022-10-22T06:39:27.127Z,69.70
2022-10-22T06:41:58.017Z,69.61
2022-10-22T06:44:29.499Z,69.62
2022-10-22T06:46:58.978Z,69.53
2022-10-22T06:49:28.117Z,69.79
2022-10-22T06:51:57.637Z,69.76
2022-10-22T06:54:26.806Z,69.84
2022-10-22T06:56:57.551Z,70.14
2022-10-22T06:59:26.788Z,69.90
2022-10-22T07:01:56.168Z,69.82
2022-10-22T07:04:25.560Z,69.89
2022-10-22T07:06:57.114Z,70.09
2022-10-22T07:09:26.620Z,70.21
2022-10-22T07:11:57.165Z,70.01
2022-10-22T07:14:26.385Z,70.01
2022-10-22T07:16:55.736Z,70.02
2022-10-22T07:19:24.969Z,70.14
2022-10-22T07:21:54.466Z,70.11
2022-10-22T07:24:23.586Z,70.04
2022-10-22T07:26:52.999Z,70.32
2022-10-22T07:29:23.598Z,70.31
2022-10-22T07:31:53.044Z,70.45
2022-10-22T07:34:22.185Z,70.33
2022-10-22T07:36:51.513Z,70.45
2022-10-22T07:39:20.692Z,70.47
2022-10-22T07:41:50.002Z,70.47
2022-10-22T07:44:19.246Z,70.52
2022-10-22T07:46:49.994Z,70.49
2022-10-22T07:49:19.228Z,70.58
2022-10-22T07:51:48.529Z,70.58
2022-10-22T07:54:19.335Z,70.59
2022-10-22T07:56:48.759Z,70.58
2022-10-22T07:59:17.942Z,70.54
2022-10-22T08:01:48.805Z,70.57
2022-10-22T08:04:18.020Z,70.62
2022-10-22T08:06:48.038Z,70.78
2022-10-22T08:09:17.305Z,70.73
2022-10-22T08:11:47.096Z,70.79
2022-10-22T08:14:15.961Z,70.64
2022-10-22T08:16:46.427Z,70.85
2022-10-22T08:19:18.964Z,70.90
2022-10-22T08:21:48.575Z,70.94
2022-10-22T08:24:18.070Z,71.03
2022-10-22T08:26:47.566Z,71.06
2022-10-22T08:29:17.056Z,71.15
2022-10-22T08:31:46.378Z,71.22
2022-10-22T08:34:17.064Z,71.27
2022-10-22T08:36:46.457Z,71.35
2022-10-22T08:39:15.799Z,71.29
2022-10-22T08:41:53.843Z,71.42
2022-10-22T08:44:51.149Z,71.41
2022-10-22T08:47:39.464Z,71.42
2022-10-22T08:50:14.536Z,71.54
2022-10-22T08:52:45.914Z,71.53
2022-10-22T08:55:17.063Z,71.56
2022-10-22T08:57:56.901Z,71.67
2022-10-22T09:00:32.471Z,71.65
2022-10-22T09:03:19.430Z,71.64
2022-10-22T09:05:58.582Z,71.82
2022-10-22T09:08:28.500Z,71.89
2022-10-22T09:11:03.836Z,71.91
2022-10-22T09:13:33.506Z,72.04
2022-10-22T09:16:15.393Z,71.96
2022-10-22T09:18:53.139Z,72.01
2022-10-22T09:21:34.206Z,72.09
2022-10-22T09:24:10.655Z,72.05
2022-10-22T09:26:42.106Z,72.10
2022-10-22T09:29:19.666Z,72.03
2022-10-22T09:31:49.139Z,72.16
2022-10-22T09:34:21.773Z,72.07
2022-10-22T09:36:59.784Z,72.08
2022-10-22T09:39:33.389Z,72.22
2022-10-22T09:42:02.616Z,72.19
2022-10-22T09:44:35.953Z,72.26
2022-10-22T09:47:07.143Z,72.31
2022-10-22T09:49:37.700Z,72.27
2022-10-22T09:52:27.767Z,72.35
2022-10-22T09:54:57.439Z,72.37
2022-10-22T09:57:27.508Z,72.19
2022-10-22T09:59:57.559Z,72.25
2022-10-22T10:02:38.795Z,72.25
2022-10-22T10:05:10.082Z,72.33
2022-10-22T10:07:41.093Z,72.37
2022-10-22T10:10:20.823Z,72.32
2022-10-22T10:12:56.619Z,72.49
2022-10-22T10:15:34.030Z,72.32
2022-10-22T10:18:15.779Z,72.30
2022-10-22T10:20:54.468Z,72.43
2022-10-22T10:23:35.159Z,72.33
2022-10-22T10:26:11.484Z,72.38
2022-10-22T10:28:56.947Z,72.41
2022-10-22T10:31:40.360Z,72.32
2022-10-22T10:34:24.236Z,72.64
2022-10-22T10:37:02.658Z,72.72
2022-10-22T10:39:41.530Z,72.90
2022-10-22T10:42:23.225Z,72.99
2022-10-22T10:45:04.949Z,73.14
2022-10-22T10:48:09.664Z,72.96
2022-10-22T10:50:51.186Z,73.18
2022-10-22T10:53:36.507Z,73.18
2022-10-22T10:56:24.454Z,73.06
2022-10-22T10:59:03.116Z,73.10
2022-10-22T11:01:43.148Z,73.13
2022-10-22T11:04:41.882Z,73.07
2022-10-22T11:07:23.335Z,72.98
2022-10-22T11:10:11.166Z,73.28
2022-10-22T11:12:48.833Z,73.08
2022-10-22T11:15:28.343Z,73.19
2022-10-22T11:18:04.355Z,73.10
2022-10-22T11:20:50.042Z,73.20
2022-10-22T11:23:25.866Z,73.11
2022-10-22T11:25:55.456Z,73.14
2022-10-22T11:28:33.289Z,73.14
2022-10-22T11:31:07.429Z,73.26
2022-10-22T11:33:45.780Z,73.25
2022-10-22T11:36:17.035Z,73.20
2022-10-22T11:38:46.694Z,73.47
2022-10-22T11:41:20.151Z,73.39
2022-10-22T11:44:09.672Z,73.24
2022-10-22T11:46:47.088Z,73.39
2022-10-22T11:49:24.605Z,73.23
2022-10-22T11:52:07.447Z,73.21
2022-10-22T11:54:45.996Z,73.17
2022-10-22T11:57:21.792Z,73.21
2022-10-22T11:59:57.348Z,73.28
2022-10-22T12:02:39.787Z,73.50
2022-10-22T12:05:37.274Z,73.32
2022-10-22T12:08:22.077Z,73.49
2022-10-22T12:11:07.698Z,73.29
2022-10-22T12:14:03.287Z,73.60
2022-10-22T12:16:55.859Z,73.54
2022-10-22T12:19:31.462Z,73.57
2022-10-22T12:22:04.403Z,73.60
2022-10-22T12:24:36.553Z,73.61
2022-10-22T12:27:18.148Z,73.87
2022-10-22T12:29:50.609Z,73.90
2022-10-22T12:32:21.555Z,73.76
2022-10-22T12:34:52.712Z,73.76
2022-10-22T12:37:23.497Z,73.83
2022-10-22T12:39:53.409Z,73.67
2022-10-22T12:42:24.108Z,73.77
2022-10-22T12:44:57.953Z,73.77
2022-10-22T12:47:32.398Z,73.80
2022-10-22T12:50:06.251Z,73.63
2022-10-22T12:52:37.370Z,73.82
2022-10-22T12:55:10.380Z,73.78
2022-10-22T12:57:40.297Z,73.83
2022-10-22T13:00:23.028Z,73.66
2022-10-22T13:02:54.643Z,74.04
2022-10-22T13:05:27.864Z,74.12
2022-10-22T13:08:05.413Z,73.93
2022-10-22T13:10:37.532Z,73.95
2022-10-22T13:13:07.779Z,73.88
2022-10-22T13:15:40.347Z,73.97
2022-10-22T13:18:20.698Z,73.96
2022-10-22T13:20:56.202Z,74.09
2022-10-22T13:23:26.867Z,74.13
2022-10-22T13:26:04.581Z,73.98
2022-10-22T13:28:34.444Z,74.01
2022-10-22T13:31:11.190Z,74.19
2022-10-22T13:33:44.850Z,74.25
2022-10-22T13:36:17.598Z,74.09
2022-10-22T13:38:46.927Z,74.28
2022-10-22T13:41:23.806Z,74.06
2022-10-22T13:43:53.783Z,74.21
2022-10-22T13:46:24.170Z,74.10
2022-10-22T13:48:57.648Z,74.16
2022-10-22T13:51:37.047Z,74.23
2022-10-22T13:54:08.499Z,74.39
2022-10-22T13:56:38.361Z,74.30
2022-10-22T13:59:07.487Z,74.34
2022-10-22T14:01:37.795Z,74.28
2022-10-22T14:04:12.620Z,74.58
2022-10-22T14:06:45.199Z,74.31
2022-10-22T14:09:17.531Z,74.21
2022-10-22T14:11:47.024Z,74.43
2022-10-22T14:14:17.386Z,74.14
2022-10-22T14:16:47.110Z,74.31
2022-10-22T14:19:19.501Z,74.30
2022-10-22T14:21:49.484Z,74.34
2022-10-22T14:24:18.720Z,74.32
2022-10-22T14:26:48.243Z,74.29
2022-10-22T14:29:17.362Z,74.16
2022-10-22T14:31:46.698Z,74.00
2022-10-22T14:34:17.967Z,73.97
2022-10-22T14:36:47.408Z,74.19
2022-10-22T14:39:18.361Z,74.12
2022-10-22T14:41:48.227Z,74.26
2022-10-22T14:44:17.337Z,74.18
2022-10-22T14:46:46.969Z,74.18
2022-10-22T14:49:17.415Z,74.03
2022-10-22T14:51:46.743Z,74.23
2022-10-22T14:54:15.950Z,74.14
2022-10-22T14:56:45.085Z,74.27
2022-10-22T14:59:14.310Z,74.34
2022-10-22T15:01:43.435Z,74.43
2022-10-22T15:04:12.816Z,74.44
2022-10-22T15:06:43.925Z,74.52
2022-10-22T15:09:13.840Z,74.62
2022-10-22T15:11:43.154Z,74.52
2022-10-22T15:14:12.406Z,74.76
2022-10-22T15:16:41.855Z,74.73
2022-10-22T15:19:11.503Z,74.63
2022-10-22T15:24:16.797Z,74.41
2022-10-22T15:26:46.159Z,74.52
2022-10-22T15:29:15.397Z,74.55
2022-10-22T15:31:46.453Z,74.54
2022-10-22T15:34:19.862Z,74.52
2022-10-22T15:36:51.090Z,74.67
2022-10-22T15:39:20.453Z,74.74
2022-10-22T15:41:49.898Z,74.63
2022-10-22T15:44:19.948Z,74.48
2022-10-22T15:49:26.033Z,74.60
2022-10-22T15:51:57.376Z,74.91
2022-10-22T15:54:28.817Z,74.71
2022-10-22T15:56:59.906Z,74.71
2022-10-22T15:59:29.260Z,74.77
2022-10-22T16:01:58.672Z,74.75
2022-10-22T16:04:27.967Z,75.47
2022-10-22T16:06:59.098Z,74.86
2022-10-22T16:09:29.397Z,74.95
2022-10-22T16:11:58.886Z,74.83
2022-10-22T16:14:29.046Z,75.07
2022-10-22T16:16:59.774Z,74.92
2022-10-22T16:19:29.257Z,74.96
2022-10-22T16:22:02.267Z,74.91
2022-10-22T16:24:32.327Z,75.10
2022-10-22T16:27:01.882Z,75.38
2022-10-22T16:29:31.154Z,75.19
2022-10-22T16:32:00.780Z,75.31
2022-10-22T16:34:30.471Z,75.49
2022-10-22T16:37:01.312Z,75.14
2022-10-22T16:39:30.934Z,75.20
2022-10-22T16:42:00.483Z,75.93
2022-10-22T16:44:29.628Z,75.42
2022-10-22T16:46:59.109Z,75.54
2022-10-22T16:49:28.312Z,75.47
2022-10-22T16:51:57.881Z,75.71
2022-10-22T16:54:28.387Z,75.64
2022-10-22T16:56:57.927Z,75.59
2022-10-22T16:59:27.038Z,75.59
2022-10-22T17:01:56.536Z,75.52
2022-10-22T17:04:25.770Z,75.47
2022-10-22T17:06:55.433Z,75.71
2022-10-22T17:09:25.546Z,75.83
2022-10-22T17:11:56.443Z,75.77
2022-10-22T17:14:25.873Z,75.90
2022-10-22T17:16:55.408Z,75.81
2022-10-22T17:19:25.026Z,75.68
2022-10-22T17:21:54.548Z,75.99
2022-10-22T17:24:23.718Z,75.85
2022-10-22T17:26:53.113Z,75.57
2022-10-22T17:29:25.475Z,75.74
2022-10-22T17:31:54.909Z,75.56
2022-10-22T17:34:24.037Z,75.55
2022-10-22T17:36:53.385Z,75.66
2022-10-22T17:39:22.509Z,75.79
2022-10-22T17:41:51.675Z,75.68
2022-10-22T17:44:20.859Z,75.85
2022-10-22T17:46:51.316Z,75.88
2022-10-22T17:49:21.625Z,75.88
2022-10-22T17:51:51.150Z,75.92
2022-10-22T17:54:20.327Z,75.88
2022-10-22T17:56:50.689Z,75.83
2022-10-22T17:59:19.985Z,76.08
2022-10-22T18:01:49.138Z,76.19
2022-10-22T18:04:22.033Z,76.13
2022-10-22T18:06:54.006Z,76.00
2022-10-22T18:09:24.953Z,76.38
2022-10-22T18:11:56.866Z,76.09
2022-10-22T18:14:26.199Z,76.00
2022-10-22T18:16:55.727Z,76.33
2022-10-22T18:19:26.691Z,76.27
2022-10-22T18:21:56.411Z,76.07
2022-10-22T18:24:25.393Z,75.80
2022-10-22T18:26:54.724Z,76.20
2022-10-22T18:29:23.909Z,76.38
2022-10-22T18:31:53.266Z,76.64
2022-10-22T18:34:25.146Z,76.34
2022-10-22T18:36:54.762Z,76.34
2022-10-22T18:39:24.373Z,76.43
2022-10-22T18:41:53.755Z,76.40
2022-10-22T18:44:24.819Z,76.39
2022-10-22T18:46:54.735Z,76.41
2022-10-22T18:49:25.433Z,76.96
2022-10-22T18:51:54.827Z,76.93
2022-10-22T18:54:24.574Z,76.42
2022-10-22T18:57:00.499Z,76.28
2022-10-22T18:59:31.367Z,76.73
2022-10-22T19:02:01.413Z,76.63
2022-10-22T19:04:37.093Z,76.54
2022-10-22T19:09:43.507Z,76.59
2022-10-22T19:12:15.178Z,76.64
2022-10-22T19:14:44.646Z,76.50
2022-10-22T19:17:13.697Z,76.23
2022-10-22T19:19:46.442Z,76.72
2022-10-22T19:22:15.841Z,76.32
2022-10-22T19:24:47.155Z,76.70
2022-10-22T19:27:16.687Z,76.52
2022-10-22T19:29:46.256Z,76.39
2022-10-22T19:32:16.623Z,76.89
2022-10-22T19:34:47.448Z,76.57
2022-10-22T19:37:16.838Z,76.49
2022-10-22T19:39:46.018Z,76.78
2022-10-22T19:42:15.182Z,76.29
2022-10-22T19:44:44.307Z,76.48
2022-10-22T19:47:13.821Z,76.30
2022-10-22T19:49:42.996Z,76.45
2022-10-22T19:52:14.758Z,76.30
2022-10-22T19:54:45.687Z,76.51
2022-10-22T19:57:17.681Z,76.43
2022-10-22T19:59:47.159Z,76.42
2022-10-22T20:02:18.196Z,76.41
2022-10-22T20:04:50.015Z,76.11
2022-10-22T20:07:21.621Z,76.17
2022-10-22T20:09:52.040Z,76.17
2022-10-22T20:12:22.024Z,76.19
2022-10-22T20:14:51.602Z,76.22
2022-10-22T20:17:21.068Z,76.33
2022-10-22T20:19:50.102Z,76.14
2022-10-22T20:22:20.834Z,76.32
2022-10-22T20:24:51.504Z,76.18
2022-10-22T20:27:21.500Z,76.29
2022-10-22T20:29:50.662Z,76.28
2022-10-22T20:32:22.161Z,76.26
2022-10-22T20:34:51.386Z,76.29
2022-10-22T20:37:22.127Z,76.10
2022-10-22T20:39:52.694Z,76.01
2022-10-22T20:42:22.149Z,76.21
2022-10-22T20:44:51.367Z,76.11
2022-10-22T20:47:20.872Z,76.04
2022-10-22T20:49:50.257Z,76.20
2022-10-22T20:52:19.598Z,75.95
2022-10-22T20:54:50.189Z,76.03
2022-10-22T20:57:19.649Z,75.90
2022-10-22T20:59:49.156Z,76.02
2022-10-22T21:02:18.563Z,75.89
2022-10-22T21:04:47.678Z,75.95
2022-10-22T21:07:17.005Z,75.92
2022-10-22T21:09:46.256Z,76.09
2022-10-22T21:12:17.027Z,76.11
2022-10-22T21:14:47.482Z,75.92
2022-10-22T21:17:17.026Z,76.03
2022-10-22T21:19:46.149Z,76.01
2022-10-22T21:22:15.637Z,76.08
2022-10-22T21:24:44.765Z,76.23
2022-10-22T21:27:16.044Z,76.07
2022-10-22T21:29:45.855Z,76.03
2022-10-22T21:32:15.178Z,76.02
2022-10-22T21:34:44.362Z,75.98
2022-10-22T21:37:13.426Z,76.10
2022-10-22T21:39:42.745Z,76.24
2022-10-22T21:42:11.784Z,75.95
2022-10-22T21:44:42.718Z,76.12
2022-10-22T21:47:12.070Z,76.00
2022-10-22T21:49:41.395Z,75.97
2022-10-22T21:52:10.462Z,75.96
2022-10-22T21:54:39.937Z,76.12
2022-10-22T21:57:09.263Z,76.12
2022-10-22T21:59:38.954Z,76.16
2022-10-22T22:02:09.532Z,75.83
2022-10-22T22:04:38.795Z,75.94
2022-10-22T22:07:08.178Z,75.85
2022-10-22T22:09:37.168Z,75.92
2022-10-22T22:12:06.794Z,75.76
2022-10-22T22:14:36.623Z,76.10
2022-10-22T22:17:06.039Z,76.10
2022-10-22T22:19:36.678Z,75.84
2022-10-22T22:22:06.119Z,76.00
2022-10-22T22:24:35.498Z,75.95
2022-10-22T22:27:04.973Z,75.82
2022-10-22T22:29:34.130Z,75.84
2022-10-22T22:32:03.642Z,75.85
2022-10-22T22:34:32.732Z,75.82
2022-10-22T22:37:03.318Z,76.45
2022-10-22T22:39:32.658Z,76.12
2022-10-22T22:42:01.716Z,76.01
2022-10-22T22:44:30.970Z,76.09
2022-10-22T22:47:00.036Z,76.13
2022-10-22T22:49:29.315Z,76.09
2022-10-22T22:51:58.383Z,76.08
2022-10-22T22:54:29.140Z,76.13
2022-10-22T22:56:58.967Z,76.07
2022-10-22T22:59:28.100Z,76.24
2022-10-22T23:01:57.673Z,76.03
2022-10-22T23:04:26.789Z,76.09
2022-10-22T23:06:55.973Z,76.11
2022-10-22T23:09:25.149Z,75.94
2022-10-22T23:11:56.056Z,75.92
2022-10-22T23:14:26.150Z,76.15
2022-10-22T23:16:55.525Z,76.05
2022-10-22T23:19:25.011Z,75.99
2022-10-22T23:21:56.244Z,75.99
2022-10-22T23:24:27.713Z,76.06
2022-10-22T23:27:01.243Z,76.01
2022-10-22T23:29:32.840Z,75.85
2022-10-22T23:32:03.631Z,76.08
2022-10-22T23:34:33.940Z,76.10
2022-10-22T23:37:03.485Z,75.98
2022-10-22T23:39:32.851Z,76.03
2022-10-22T23:42:03.720Z,76.08
2022-10-22T23:44:33.141Z,76.14
2022-10-22T23:47:03.259Z,75.94
2022-10-22T23:49:32.979Z,75.94
2022-10-22T23:52:02.441Z,75.93
2022-10-22T23:54:31.522Z,76.02
2022-10-22T23:57:02.413Z,76.01
2022-10-22T23:59:31.653Z,75.94
